Terminal Aerodrome Forecast
Issued by NWS

Current Version | Previous Version | Graphics & Text | Print | Product List | Glossary On
Versions: 1 2 3 4 5 6 7 8 9 10 11 12 13 14
000
FTUS41 KPBZ 250600 AAA
TAFHLG
TAF AMD
KHLG 250655Z 2507/2606 24011G23KT P6SM SCT025 BKN035
     FM251200 24014G24KT P6SM BKN025
     FM251800 25012KT P6SM BKN025=

USA.gov is the U.S. government's official web portal to all federal, state and local government web resources and services.